Flight Track Log - Related Links

Times and Time Zones

All times are in EDT time to prevent confusion due to time zone crossing. See the N47NG flight status page for this flight to view local times or setup timezone preferences in your user account.

Time Position Orientation Groundspeed Altitude Reporting Facility
EDT Latitude Longitude Course Direction KTS MPH feet Rate Location/Type
Tue 03:06:28 PM 43.1094 -76.0958 86° East 84 97 1,000  Level Boston Center
Tue 03:07:11 PM 43.1111 -76.0658 86° East 140 161 1,700 1,269 Climbing Boston Center
Tue 03:08:12 PM 43.0975 -76.0142 110° East 152 175 3,200 1,548 Climbing Boston Center
Tue 03:09:15 PM 43.0619 -75.9583 131° Southeast 174 200 4,900 1,548 Climbing Boston Center
Tue 03:10:16 PM 43.0492 -75.9008 107° East 169 194 6,400 1,438 Climbing Boston Center
Tue 03:11:16 PM 43.0117 -75.8611 142° Southeast 168 193 7,800 1,415 Climbing Boston Center
Tue 03:12:19 PM 42.9753 -75.8194 140° Southeast 172 198 9,300 1,056 Climbing Boston Center
Tue 03:13:21 PM 42.9333 -75.7711 140° Southeast 193 222 10,000 347 Climbing Boston Center
Tue 03:14:20 PM 42.8847 -75.7150 140° Southeast 227 261 10,000  Level Boston Center
Tue 03:15:24 PM 42.8319 -75.6544 140° Southeast 246 283 10,000 1,016 Level Boston Center
Tue 03:16:24 PM 42.7756 -75.5903 140° Southeast 216 249 12,100 1,645 Climbing Boston Center
Tue 03:17:28 PM 42.7342 -75.5433 140° Southeast 197 227 13,400 1,210 Climbing Boston Center
Tue 03:18:28 PM 42.6922 -75.4953 140° Southeast 196 226 14,600 1,091 Climbing Boston Center
Tue 03:19:29 PM 42.6597 -75.4286 124° Southeast 206 237 15,600 1,082 Climbing Boston Center
Tue 03:20:30 PM 42.6292 -75.3625 122° Southeast 208 239 16,800 677 Climbing Boston Center
Tue 03:21:33 PM 42.5950 -75.2925 124° Southeast 215 247 17,000 97 Climbing Boston Center
Tue 03:22:34 PM 42.5561 -75.2119 123° Southeast 244 281 17,000  Level Boston Center
Tue 03:23:37 PM 42.5075 -75.1086 123° Southeast 266 306 17,000  Level Boston Center
Tue 03:24:38 PM 42.4669 -75.0233 123° Southeast 266 306 17,000  Level Boston Center
Tue 03:25:39 PM 42.4253 -74.9358 123° Southeast 272 313 17,000  Level Boston Center
Tue 03:26:39 PM 42.3842 -74.8503 123° Southeast 273 314 17,000  Level Boston Center
Tue 03:27:43 PM 42.3367 -74.7533 124° Southeast 275 316 17,000 -240 Level Boston Center
Tue 03:28:44 PM 42.2986 -74.6736 123° Southeast 281 323 16,500 -545 Descending Boston Center
Tue 03:29:44 PM 42.2542 -74.5811 123° Southeast 291 335 15,900 -629 Descending Boston Center
Tue 03:30:48 PM 42.1994 -74.4694 123° Southeast 296 341 15,200 -432 Descending Boston Center
Tue 03:31:49 PM 42.1553 -74.3786 123° Southeast 292 336 15,000 -99 Descending Boston Center
Tue 03:32:49 PM 42.1094 -74.2836 123° Southeast 284 327 15,000  Level Boston Center
Tue 03:33:50 PM 42.0656 -74.1975 124° Southeast 280 322 15,000  Level Boston Center
Tue 03:34:52 PM 42.0236 -74.1106 123° Southeast 279 321 15,000  Level Boston Center
Tue 03:35:55 PM 41.9783 -74.0175 123° Southeast 276 318 15,000 -194 Level Boston Center
Tue 03:36:56 PM 41.9367 -73.9333 124° Southeast 274 315 14,600 -836 Descending Boston Center
Tue 03:37:57 PM 41.8914 -73.8442 124° Southeast 283 326 13,300 -1,200 Descending Boston Center
Tue 03:39:01 PM 41.8289 -73.7719 139° Southeast 280 322 12,100 -1,200 Descending Boston Center
Tue 03:40:02 PM 41.7694 -73.7119 143° Southeast 271 312 10,800 -1,230 Descending Boston Center
Tue 03:41:03 PM 41.7114 -73.6572 145° Southeast 258 297 9,600 -1,240 Descending Boston Center
Tue 03:42:03 PM 41.6531 -73.5989 143° Southeast 247 284 8,300 -1,161 Descending Boston Center
Tue 03:43:07 PM 41.5992 -73.5464 144° Southeast 242 278 7,200 -1,056 Descending Boston Center
Tue 03:44:08 PM 41.5461 -73.4961 145° Southeast 236 272 6,100 -1,140 Descending Boston Center
Tue 03:45:08 PM 41.4897 -73.4397 143° Southeast 236 272 4,900 -1,073 Descending Boston Center
Tue 03:46:11 PM 41.4361 -73.3897 145° Southeast 235 270 3,900 -532 Descending Boston Center
Tue 03:47:12 PM 41.3842 -73.3394 144° Southeast 234 269 3,800 -689 Descending Boston Center
Tue 03:48:13 PM 41.3344 -73.2931 145° Southeast 232 267 2,500 -683 Descending Boston Center
Tue 03:49:15 PM 41.3114 -73.2311 116° Southeast 203 234 2,400 -49 Descending Boston Center
Tue 03:50:16 PM 41.2997 -73.1725 105° East 185 213 2,400  Level Boston Center
Tue 03:51:19 PM 41.3172 -73.1164 67° East 175 201 2,400  Level Boston Center
Tue 03:52:20 PM 41.3611 -73.1069 North 166 191 2,400 -244 Level Boston Center
Tue 03:53:22 PM 41.4072 -73.1178 350° North 150 173 1,900 -541 Descending Boston Center
Tue 03:54:22 PM 41.4378 -73.1253 350° North 130 150 1,300 -532 Descending Boston Center
Tue 03:55:26 PM 41.4667 -73.1308 352° North 115 132 800 -469 Descending Boston Center

Login

Don't have an account? Register now (free) for customized features, flight alerts, and more!